createdAt,value
2023-04-20T00:00:22.296Z,59.50
2023-04-20T00:02:50.981Z,59.34
2023-04-20T00:05:19.452Z,59.07
2023-04-20T00:07:48.877Z,59.19
2023-04-20T00:10:18.685Z,59.55
2023-04-20T00:12:48.813Z,59.70
2023-04-20T00:15:17.367Z,59.45
2023-04-20T00:17:46.843Z,59.60
2023-04-20T00:20:16.639Z,59.52
2023-04-20T00:22:45.387Z,59.69
2023-04-20T00:25:14.969Z,59.46
2023-04-20T00:27:45.999Z,59.58
2023-04-20T00:30:17.086Z,59.53
2023-04-20T00:32:46.904Z,59.68
2023-04-20T00:35:15.780Z,59.55
2023-04-20T00:37:44.301Z,59.72
2023-04-20T00:40:13.361Z,59.60
2023-04-20T00:42:42.432Z,59.75
2023-04-20T00:45:12.687Z,59.51
2023-04-20T00:47:42.941Z,59.35
2023-04-20T00:50:12.979Z,59.58
2023-04-20T00:52:45.634Z,59.85
2023-04-20T00:55:14.339Z,60.15
2023-04-20T00:57:43.021Z,60.48
2023-04-20T01:00:13.402Z,60.65
2023-04-20T01:02:43.189Z,60.50
2023-04-20T01:05:12.210Z,60.31
2023-04-20T01:07:40.576Z,60.42
2023-04-20T01:10:11.709Z,60.29
2023-04-20T01:12:39.995Z,60.29
2023-04-20T01:15:09.957Z,60.28
2023-04-20T01:17:40.177Z,60.65
2023-04-20T01:20:12.671Z,60.82
2023-04-20T01:22:50.041Z,60.88
2023-04-20T01:25:20.825Z,61.08
2023-04-20T01:27:49.640Z,61.25
2023-04-20T01:30:18.473Z,61.33
2023-04-20T01:32:47.017Z,61.39
2023-04-20T01:35:18.189Z,61.94
2023-04-20T01:37:46.842Z,62.11
2023-04-20T01:40:17.351Z,61.68
2023-04-20T01:42:45.842Z,61.69
2023-04-20T01:45:14.149Z,61.92
2023-04-20T01:47:43.793Z,61.50
2023-04-20T01:50:12.998Z,61.54
2023-04-20T01:52:41.323Z,61.44
2023-04-20T01:55:11.927Z,61.20
2023-04-20T01:57:41.949Z,61.24
2023-04-20T02:00:11.308Z,61.55
2023-04-20T02:02:40.257Z,61.66
2023-04-20T02:05:10.729Z,61.58
2023-04-20T02:07:40.031Z,61.60
2023-04-20T02:10:09.333Z,61.52
2023-04-20T02:12:37.808Z,61.64
2023-04-20T02:15:09.930Z,61.34
2023-04-20T02:17:38.644Z,61.55
2023-04-20T02:20:09.383Z,61.72
2023-04-20T02:22:38.070Z,61.86
2023-04-20T02:25:12.885Z,61.56
2023-04-20T02:27:42.728Z,61.68
2023-04-20T02:30:13.491Z,61.60
2023-04-20T02:32:42.465Z,61.71
2023-04-20T02:35:12.739Z,61.79
2023-04-20T02:37:41.786Z,61.95
2023-04-20T02:40:13.759Z,61.62
2023-04-20T02:42:44.777Z,61.81
2023-04-20T02:45:14.883Z,61.75
2023-04-20T02:47:43.771Z,61.60
2023-04-20T02:50:12.783Z,61.54
2023-04-20T02:52:41.272Z,61.71
2023-04-20T02:55:10.288Z,61.67
2023-04-20T02:57:38.866Z,61.69
2023-04-20T03:00:09.547Z,61.85
2023-04-20T03:02:39.985Z,61.81
2023-04-20T03:05:10.802Z,61.87
2023-04-20T03:07:39.562Z,62.19
2023-04-20T03:10:09.876Z,62.36
2023-04-20T03:12:38.287Z,62.19
2023-04-20T03:15:08.274Z,62.32
2023-04-20T03:17:37.583Z,62.22
2023-04-20T03:20:10.225Z,62.15
2023-04-20T03:22:38.836Z,62.21
2023-04-20T03:25:08.170Z,62.09
2023-04-20T03:27:37.011Z,62.28
2023-04-20T03:30:06.261Z,62.15
2023-04-20T03:32:34.687Z,62.23
2023-04-20T03:35:03.052Z,62.15
2023-04-20T03:37:33.348Z,62.18
2023-04-20T03:40:01.696Z,61.85
2023-04-20T03:42:30.746Z,61.99
2023-04-20T03:45:00.796Z,61.97
2023-04-20T03:47:29.355Z,62.18
2023-04-20T03:49:58.194Z,62.16
2023-04-20T03:52:26.502Z,62.24
2023-04-20T03:54:56.202Z,62.37
2023-04-20T03:57:24.964Z,62.14
2023-04-20T03:59:53.604Z,62.34
2023-04-20T04:02:23.086Z,62.26
2023-04-20T04:04:51.479Z,62.24
2023-04-20T04:07:20.031Z,62.38
2023-04-20T04:09:49.765Z,62.16
2023-04-20T04:12:19.716Z,62.06
2023-04-20T04:14:48.276Z,62.41
2023-04-20T04:17:17.146Z,62.74
2023-04-20T04:19:46.101Z,62.59
2023-04-20T04:22:14.365Z,63.00
2023-04-20T04:24:43.169Z,62.61
2023-04-20T04:27:14.687Z,62.82
2023-04-20T04:29:45.292Z,63.14
2023-04-20T04:32:14.381Z,62.80
2023-04-20T04:34:44.400Z,62.90
2023-04-20T04:37:13.283Z,63.15
2023-04-20T04:39:42.340Z,62.89
2023-04-20T04:42:10.873Z,63.05
2023-04-20T04:44:40.194Z,63.23
2023-04-20T04:47:12.192Z,63.23
2023-04-20T04:49:41.850Z,63.37
2023-04-20T04:52:11.026Z,63.62
2023-04-20T04:54:39.524Z,63.31
2023-04-20T04:57:08.094Z,63.39
2023-04-20T04:59:36.411Z,63.71
2023-04-20T05:02:05.006Z,63.71
2023-04-20T05:04:35.119Z,63.74
2023-04-20T05:07:03.417Z,63.85
2023-04-20T05:09:33.707Z,64.18
2023-04-20T05:12:03.494Z,64.16
2023-04-20T05:14:33.787Z,63.93
2023-04-20T05:17:03.595Z,64.12
2023-04-20T05:19:32.207Z,64.11
2023-04-20T05:22:02.878Z,63.96
2023-04-20T05:24:31.379Z,63.77
2023-04-20T05:27:00.223Z,64.07
2023-04-20T05:29:29.691Z,64.20
2023-04-20T05:31:58.217Z,64.34
2023-04-20T05:34:28.395Z,64.19
2023-04-20T05:36:57.553Z,64.34
2023-04-20T05:39:27.846Z,64.56
2023-04-20T05:41:56.104Z,64.51
2023-04-20T05:44:24.406Z,64.68
2023-04-20T05:46:54.392Z,64.32
2023-04-20T05:49:23.374Z,63.98
2023-04-20T05:51:53.817Z,64.65
2023-04-20T05:54:22.970Z,64.86
2023-04-20T05:56:53.010Z,64.77
2023-04-20T05:59:21.957Z,65.49
2023-04-20T06:01:50.266Z,65.65
2023-04-20T06:04:19.378Z,65.44
2023-04-20T06:06:47.955Z,65.28
2023-04-20T06:09:17.072Z,65.41
2023-04-20T06:11:45.523Z,65.52
2023-04-20T06:14:16.071Z,65.84
2023-04-20T06:16:45.774Z,65.63
2023-04-20T06:19:14.605Z,65.29
2023-04-20T06:21:43.551Z,65.32
2023-04-20T06:24:12.107Z,65.70
2023-04-20T06:26:41.150Z,65.83
2023-04-20T06:29:09.629Z,66.03
2023-04-20T06:31:40.851Z,65.62
2023-04-20T06:34:09.403Z,65.07
2023-04-20T06:36:37.698Z,65.46
2023-04-20T06:39:06.097Z,65.29
2023-04-20T06:41:34.802Z,65.46
2023-04-20T06:44:03.455Z,65.63
2023-04-20T06:46:32.075Z,65.57
2023-04-20T06:49:02.057Z,65.56
2023-04-20T06:51:31.335Z,65.83
2023-04-20T06:53:59.918Z,65.55
2023-04-20T06:56:28.512Z,65.32
2023-04-20T06:58:57.075Z,65.31
2023-04-20T07:01:25.366Z,65.38
2023-04-20T07:03:54.044Z,65.12
2023-04-20T07:06:26.833Z,65.12
2023-04-20T07:08:55.160Z,65.18
2023-04-20T07:11:25.413Z,64.76
2023-04-20T07:13:54.023Z,64.79
2023-04-20T07:16:23.895Z,64.90
2023-04-20T07:18:52.186Z,64.78
2023-04-20T07:21:21.500Z,64.15
2023-04-20T07:23:51.196Z,63.65
2023-04-20T07:26:20.946Z,63.75
2023-04-20T07:28:49.221Z,64.23
2023-04-20T07:31:17.964Z,64.50
2023-04-20T07:33:46.352Z,64.56
2023-04-20T07:36:14.909Z,63.68
2023-04-20T07:38:43.548Z,63.83
2023-04-20T07:41:14.318Z,63.81
2023-04-20T07:43:42.894Z,63.76
2023-04-20T07:46:11.503Z,64.11
2023-04-20T07:48:40.084Z,64.00
2023-04-20T07:51:08.440Z,63.52
2023-04-20T07:53:37.297Z,63.85
2023-04-20T07:56:06.927Z,63.86
2023-04-20T07:58:39.431Z,63.68
2023-04-20T08:01:08.900Z,63.98
2023-04-20T08:03:38.052Z,63.89
2023-04-20T08:06:08.090Z,63.72
2023-04-20T08:08:36.389Z,63.85
2023-04-20T08:11:08.415Z,63.57
2023-04-20T08:13:38.956Z,63.77
2023-04-20T08:16:07.904Z,63.78
2023-04-20T08:18:36.181Z,63.51
2023-04-20T08:21:04.992Z,63.43
2023-04-20T08:23:33.273Z,63.55
2023-04-20T08:26:02.210Z,63.49
2023-04-20T08:28:33.769Z,63.44
2023-04-20T08:31:05.080Z,63.10
2023-04-20T08:33:34.081Z,62.91
2023-04-20T08:36:02.836Z,62.64
2023-04-20T08:38:34.419Z,62.83
2023-04-20T08:41:02.899Z,62.64
2023-04-20T08:43:31.528Z,62.63
2023-04-20T08:46:03.234Z,62.22
2023-04-20T08:48:38.216Z,62.07
2023-04-20T08:51:07.336Z,61.85
2023-04-20T08:53:35.783Z,61.05
2023-04-20T08:56:06.886Z,60.81
2023-04-20T08:58:35.459Z,59.87
2023-04-20T09:01:05.345Z,60.16
2023-04-20T09:03:41.016Z,59.97
2023-04-20T09:06:17.904Z,59.79
2023-04-20T09:08:47.542Z,59.91
2023-04-20T09:11:26.911Z,60.14
2023-04-20T09:14:02.427Z,59.64
2023-04-20T09:16:31.941Z,60.07
2023-04-20T09:19:02.082Z,60.23
2023-04-20T09:21:31.525Z,60.40
2023-04-20T09:24:01.695Z,60.19
2023-04-20T09:26:34.110Z,60.34
2023-04-20T09:29:04.046Z,60.18
2023-04-20T09:31:32.394Z,59.86
2023-04-20T09:34:05.897Z,59.54
2023-04-20T09:36:39.136Z,60.14
2023-04-20T09:39:10.109Z,59.69
2023-04-20T09:41:39.970Z,59.14
2023-04-20T09:44:09.925Z,58.27
2023-04-20T09:46:39.722Z,58.34
2023-04-20T09:49:11.485Z,58.49
2023-04-20T09:51:42.173Z,58.00
2023-04-20T09:54:11.796Z,57.29
2023-04-20T09:56:41.204Z,57.25
2023-04-20T09:59:09.806Z,57.82
2023-04-20T10:01:39.004Z,57.10
2023-04-20T10:04:13.370Z,57.04
2023-04-20T10:06:53.362Z,55.46
2023-04-20T10:09:25.056Z,55.10
2023-04-20T10:11:56.153Z,55.88
2023-04-20T10:14:27.675Z,56.45
2023-04-20T10:17:04.146Z,56.46
2023-04-20T10:19:41.882Z,55.50
2023-04-20T10:22:11.670Z,55.79
2023-04-20T10:24:40.936Z,55.95
2023-04-20T10:27:20.025Z,55.53
2023-04-20T10:29:49.109Z,55.79
2023-04-20T10:32:25.311Z,55.43
2023-04-20T10:35:07.092Z,54.55
2023-04-20T10:37:36.492Z,54.88
2023-04-20T10:40:07.938Z,55.40
2023-04-20T10:42:44.006Z,55.35
2023-04-20T10:45:13.711Z,55.50
2023-04-20T10:47:42.937Z,55.71
2023-04-20T10:50:15.064Z,55.70
2023-04-20T10:52:46.404Z,55.77
2023-04-20T10:55:21.676Z,55.55
2023-04-20T10:57:50.464Z,55.09
2023-04-20T11:00:20.614Z,55.43
2023-04-20T11:02:51.150Z,55.24
2023-04-20T11:05:23.045Z,55.78
2023-04-20T11:07:55.203Z,55.94
2023-04-20T11:10:27.235Z,55.88
2023-04-20T11:12:57.098Z,56.14
2023-04-20T11:15:33.680Z,56.63
2023-04-20T11:18:09.892Z,56.68
2023-04-20T11:20:40.210Z,56.88
2023-04-20T11:23:08.573Z,57.06
2023-04-20T11:25:37.259Z,57.16
2023-04-20T11:28:10.284Z,57.15
2023-04-20T11:30:44.014Z,57.27
2023-04-20T11:33:14.442Z,58.02
2023-04-20T11:35:47.221Z,57.54
2023-04-20T11:38:16.532Z,57.62
2023-04-20T11:40:45.117Z,57.58
2023-04-20T11:43:13.962Z,57.58
2023-04-20T11:45:43.990Z,57.85
2023-04-20T11:48:12.980Z,57.20
2023-04-20T11:50:42.697Z,57.57
2023-04-20T11:53:14.875Z,57.32
2023-04-20T11:55:44.518Z,57.01
2023-04-20T11:58:12.763Z,56.95
2023-04-20T12:00:41.341Z,57.13
2023-04-20T12:03:10.180Z,56.85
2023-04-20T12:05:38.577Z,56.60
2023-04-20T12:08:08.435Z,56.46
2023-04-20T12:10:40.419Z,56.91
2023-04-20T12:13:08.679Z,57.07
2023-04-20T12:15:36.997Z,56.84
2023-04-20T12:18:06.519Z,56.58
2023-04-20T12:20:35.285Z,56.94
2023-04-20T12:23:04.172Z,57.23
2023-04-20T12:25:33.154Z,57.40
2023-04-20T12:28:06.953Z,56.51
2023-04-20T12:30:37.068Z,56.84
2023-04-20T12:33:07.110Z,57.28
2023-04-20T12:35:35.461Z,57.72
2023-04-20T12:38:04.149Z,57.61
2023-04-20T12:40:32.635Z,57.33
2023-04-20T12:43:04.071Z,57.42
2023-04-20T12:45:32.909Z,57.23
2023-04-20T12:48:02.066Z,57.52
2023-04-20T12:50:30.517Z,57.79
2023-04-20T12:52:58.987Z,57.75
2023-04-20T12:55:28.315Z,58.05
2023-04-20T12:57:56.934Z,58.57
2023-04-20T13:00:27.353Z,58.65
2023-04-20T13:02:56.682Z,58.47
2023-04-20T13:05:26.176Z,58.36
2023-04-20T13:07:54.468Z,58.47
2023-04-20T13:10:23.285Z,58.20
2023-04-20T13:12:52.702Z,57.82
2023-04-20T13:15:31.983Z,57.85
2023-04-20T13:18:10.149Z,57.95
2023-04-20T13:20:38.579Z,58.10
2023-04-20T13:23:06.906Z,58.13
2023-04-20T13:25:36.234Z,58.41
2023-04-20T13:28:05.778Z,58.26
2023-04-20T13:30:34.198Z,58.36
2023-04-20T13:33:03.090Z,58.44
2023-04-20T13:35:33.230Z,58.97
2023-04-20T13:38:02.457Z,58.87
2023-04-20T13:40:31.226Z,58.95
2023-04-20T13:43:00.144Z,59.00
2023-04-20T13:45:30.269Z,58.50
2023-04-20T13:47:58.662Z,58.67
2023-04-20T13:50:28.092Z,58.82
2023-04-20T13:52:58.073Z,59.29
2023-04-20T13:55:27.212Z,59.57
2023-04-20T13:57:56.126Z,58.62
2023-04-20T14:00:26.330Z,58.67
2023-04-20T14:02:55.269Z,59.12
2023-04-20T14:05:26.023Z,58.45
2023-04-20T14:07:54.343Z,57.86
2023-04-20T14:10:24.501Z,57.77
2023-04-20T14:12:52.824Z,57.63
2023-04-20T14:15:22.175Z,57.30
2023-04-20T14:17:52.438Z,57.02
2023-04-20T14:20:21.388Z,57.13
2023-04-20T14:22:50.293Z,56.85
2023-04-20T14:25:19.050Z,56.82
2023-04-20T14:27:50.205Z,57.24
2023-04-20T14:30:18.545Z,57.34
2023-04-20T14:32:56.255Z,57.18
2023-04-20T14:35:26.216Z,57.43
2023-04-20T14:37:55.606Z,57.38
2023-04-20T14:40:24.030Z,57.67
2023-04-20T14:42:54.221Z,57.11
2023-04-20T14:45:22.657Z,57.00
2023-04-20T14:47:55.241Z,57.18
2023-04-20T14:50:24.352Z,57.52
2023-04-20T14:52:55.183Z,56.99
2023-04-20T14:55:26.297Z,57.45
2023-04-20T14:57:58.036Z,57.18
2023-04-20T15:00:30.141Z,57.28
2023-04-20T15:02:59.815Z,57.23
2023-04-20T15:05:30.383Z,57.55
2023-04-20T15:07:59.119Z,57.41
2023-04-20T15:10:28.113Z,57.32
2023-04-20T15:13:00.117Z,57.51
2023-04-20T15:15:37.676Z,57.77
2023-04-20T15:18:17.081Z,57.56
2023-04-20T15:20:45.675Z,57.86
2023-04-20T15:23:14.477Z,58.10
2023-04-20T15:25:43.262Z,58.15
2023-04-20T15:28:15.135Z,57.85
2023-04-20T15:30:44.373Z,57.99
2023-04-20T15:33:12.712Z,57.82
2023-04-20T15:35:42.210Z,58.24
2023-04-20T15:38:11.194Z,58.13
2023-04-20T15:40:40.128Z,58.38
2023-04-20T15:43:09.146Z,58.32
2023-04-20T15:45:38.918Z,58.54
2023-04-20T15:48:07.624Z,58.12
2023-04-20T15:50:37.192Z,58.18
2023-04-20T15:53:06.493Z,58.56
2023-04-20T15:55:36.391Z,58.79
2023-04-20T15:58:05.129Z,58.61
2023-04-20T16:00:34.242Z,58.57
2023-04-20T16:03:05.510Z,58.54
2023-04-20T16:05:34.197Z,59.20
2023-04-20T16:08:04.084Z,59.08
2023-04-20T16:10:32.583Z,58.92
2023-04-20T16:13:00.870Z,59.29
2023-04-20T16:15:30.369Z,59.69
2023-04-20T16:18:02.173Z,60.29
2023-04-20T16:20:33.082Z,60.26
2023-04-20T16:23:01.348Z,60.02
2023-04-20T16:25:31.100Z,60.15
2023-04-20T16:28:00.595Z,60.58
2023-04-20T16:30:28.917Z,61.00
2023-04-20T16:33:01.197Z,60.76
2023-04-20T16:35:30.124Z,61.12
2023-04-20T16:38:01.196Z,61.42
2023-04-20T16:40:29.464Z,62.06
2023-04-20T16:42:58.040Z,61.92
2023-04-20T16:45:27.046Z,61.81
2023-04-20T16:47:56.321Z,62.00
2023-04-20T16:50:24.964Z,62.11
2023-04-20T16:52:53.211Z,61.95
2023-04-20T16:55:24.449Z,62.11
2023-04-20T16:57:59.789Z,62.64
2023-04-20T17:00:30.116Z,62.78
2023-04-20T17:03:01.785Z,62.64
2023-04-20T17:05:31.554Z,62.67
2023-04-20T17:08:01.587Z,62.57
2023-04-20T17:10:32.086Z,62.83
2023-04-20T17:13:00.450Z,62.96
2023-04-20T17:15:29.620Z,63.31
2023-04-20T17:17:57.977Z,63.56
2023-04-20T17:20:27.448Z,63.59
2023-04-20T17:22:57.013Z,63.43
2023-04-20T17:25:25.898Z,63.48
2023-04-20T17:27:57.715Z,63.54
2023-04-20T17:30:26.066Z,64.35
2023-04-20T17:32:58.416Z,64.25
2023-04-20T17:35:26.865Z,64.04
2023-04-20T17:37:55.156Z,64.47
2023-04-20T17:40:28.069Z,64.43
2023-04-20T17:42:58.854Z,63.94
2023-04-20T17:45:30.214Z,64.63
2023-04-20T17:47:59.262Z,64.55
2023-04-20T17:50:27.669Z,64.77
2023-04-20T17:52:56.139Z,64.63
2023-04-20T17:55:25.646Z,64.23
2023-04-20T17:57:53.978Z,64.41
2023-04-20T18:00:26.295Z,64.28
2023-04-20T18:02:54.727Z,64.96
2023-04-20T18:05:23.720Z,64.87
2023-04-20T18:07:52.037Z,65.06
2023-04-20T18:10:20.844Z,64.88
2023-04-20T18:12:51.165Z,64.90
2023-04-20T18:15:19.468Z,64.75
2023-04-20T18:17:51.359Z,64.42
2023-04-20T18:20:21.289Z,64.83
2023-04-20T18:22:52.347Z,65.22
2023-04-20T18:25:21.235Z,65.35
2023-04-20T18:27:50.291Z,65.29
2023-04-20T18:30:20.199Z,65.31
2023-04-20T18:32:49.960Z,65.28
2023-04-20T18:35:19.479Z,65.12
2023-04-20T18:37:48.745Z,65.18
2023-04-20T18:40:17.084Z,64.71
2023-04-20T18:42:45.367Z,64.87
2023-04-20T18:45:14.220Z,65.04
2023-04-20T18:47:43.235Z,65.13
2023-04-20T18:50:14.284Z,65.29
2023-04-20T18:52:42.771Z,65.05
2023-04-20T18:55:12.505Z,65.36
2023-04-20T18:57:41.910Z,65.33
2023-04-20T19:00:11.232Z,65.40
2023-04-20T19:02:41.311Z,65.59
2023-04-20T19:05:10.098Z,65.40
2023-04-20T19:07:40.467Z,65.63
2023-04-20T19:10:10.698Z,65.47
2023-04-20T19:12:39.009Z,65.60
2023-04-20T19:15:09.394Z,65.52
2023-04-20T19:17:39.175Z,65.70
2023-04-20T19:20:09.561Z,65.68
2023-04-20T19:22:39.884Z,65.93
2023-04-20T19:25:10.282Z,65.79
2023-04-20T19:27:41.240Z,65.84
2023-04-20T19:30:11.573Z,65.91
2023-04-20T19:32:40.180Z,65.92
2023-04-20T19:35:10.369Z,65.79
2023-04-20T19:37:42.423Z,65.92
2023-04-20T19:40:11.019Z,65.76
2023-04-20T19:42:40.640Z,65.85
2023-04-20T19:45:15.222Z,66.06
2023-04-20T19:47:44.907Z,66.12
2023-04-20T19:50:17.557Z,65.83
2023-04-20T19:52:49.024Z,66.00
2023-04-20T19:55:19.855Z,66.31
2023-04-20T19:57:49.837Z,66.25
2023-04-20T20:00:20.393Z,66.32
2023-04-20T20:02:50.002Z,66.06
2023-04-20T20:05:20.694Z,66.27
2023-04-20T20:07:53.557Z,66.16
2023-04-20T20:10:24.060Z,66.30
2023-04-20T20:12:55.824Z,66.37
2023-04-20T20:15:25.604Z,66.23
2023-04-20T20:17:57.574Z,66.41
2023-04-20T20:20:30.795Z,66.23
2023-04-20T20:23:03.814Z,66.51
2023-04-20T20:25:35.150Z,66.54
2023-04-20T20:28:07.841Z,66.45
2023-04-20T20:30:37.181Z,66.35
2023-04-20T20:33:07.113Z,66.46
2023-04-20T20:35:38.801Z,66.08
2023-04-20T20:38:11.307Z,66.38
2023-04-20T20:40:42.880Z,66.39
2023-04-20T20:43:14.340Z,66.69
2023-04-20T20:45:44.780Z,66.56
2023-04-20T20:48:13.137Z,66.64
2023-04-20T20:50:44.676Z,66.54
2023-04-20T20:53:15.752Z,66.61
2023-04-20T20:55:45.325Z,66.69
2023-04-20T20:58:19.752Z,66.55
2023-04-20T21:00:50.946Z,66.54
2023-04-20T21:03:20.656Z,66.64
2023-04-20T21:05:51.908Z,66.93
2023-04-20T21:08:23.117Z,66.67
2023-04-20T21:10:52.483Z,66.79
2023-04-20T21:13:22.085Z,66.95
2023-04-20T21:15:51.724Z,66.90
2023-04-20T21:18:22.048Z,67.04
2023-04-20T21:20:51.602Z,67.07
2023-04-20T21:23:23.694Z,66.96
2023-04-20T21:25:54.806Z,67.21
2023-04-20T21:28:26.675Z,67.47
2023-04-20T21:30:55.188Z,67.09
2023-04-20T21:33:25.339Z,67.16
2023-04-20T21:35:57.076Z,67.53
2023-04-20T21:38:30.664Z,67.62
2023-04-20T21:41:00.387Z,67.44
2023-04-20T21:43:30.511Z,67.57
2023-04-20T21:45:58.901Z,67.72
2023-04-20T21:48:27.216Z,67.71
2023-04-20T21:50:56.523Z,67.77
2023-04-20T21:53:25.031Z,67.53
2023-04-20T21:55:55.153Z,67.69
2023-04-20T21:58:25.763Z,67.82
2023-04-20T22:00:54.132Z,67.94
2023-04-20T22:03:24.332Z,68.06
2023-04-20T22:05:52.781Z,68.05
2023-04-20T22:08:26.183Z,68.19
2023-04-20T22:10:58.393Z,68.08
2023-04-20T22:13:26.787Z,68.21
2023-04-20T22:15:56.599Z,68.32
2023-04-20T22:18:24.980Z,68.44
2023-04-20T22:20:53.886Z,68.51
2023-04-20T22:23:22.185Z,68.48
2023-04-20T22:25:51.374Z,68.48
2023-04-20T22:28:21.709Z,68.45
2023-04-20T22:30:52.353Z,68.55
2023-04-20T22:33:21.502Z,68.63
2023-04-20T22:35:50.380Z,68.56
2023-04-20T22:38:18.668Z,68.69
2023-04-20T22:40:48.449Z,68.51
2023-04-20T22:43:17.289Z,68.78
2023-04-20T22:45:48.383Z,68.78
2023-04-20T22:48:17.722Z,68.76
2023-04-20T22:50:46.074Z,68.81
2023-04-20T22:53:14.645Z,69.07
2023-04-20T22:55:44.486Z,68.96
2023-04-20T22:58:13.674Z,68.75
2023-04-20T23:00:42.608Z,68.82
2023-04-20T23:03:12.497Z,68.90
2023-04-20T23:05:46.335Z,68.93
2023-04-20T23:08:18.547Z,69.32
2023-04-20T23:10:47.385Z,69.11
2023-04-20T23:13:18.590Z,68.90
2023-04-20T23:15:48.358Z,68.87
2023-04-20T23:18:18.081Z,68.71
2023-04-20T23:20:47.464Z,68.82
2023-04-20T23:23:16.745Z,68.80
2023-04-20T23:25:46.204Z,68.88
2023-04-20T23:28:16.390Z,68.89
2023-04-20T23:30:44.740Z,69.04
2023-04-20T23:33:14.432Z,69.15
2023-04-20T23:35:44.813Z,69.05
2023-04-20T23:38:13.071Z,69.23
2023-04-20T23:40:41.470Z,69.18
2023-04-20T23:43:10.774Z,69.11
2023-04-20T23:45:39.078Z,69.23
2023-04-20T23:48:07.954Z,69.30
2023-04-20T23:50:38.625Z,69.28
2023-04-20T23:53:10.282Z,69.14
2023-04-20T23:55:39.362Z,69.41
2023-04-20T23:58:09.461Z,69.22
